sensor_id;sensor_type;location;lat;lon;timestamp;pressure;altitude;pressure_sealevel;temperature;humidity
13836;BME280;6988;52.614;13.500;2023-04-23T00:02:03;54307.19;;;-143.77;62.55
13836;BME280;6988;52.614;13.500;2023-04-23T00:06:57;54307.19;;;-143.77;62.33
13836;BME280;6988;52.614;13.500;2023-04-23T00:11:50;54315.41;;;-143.77;62.49
13836;BME280;6988;52.614;13.500;2023-04-23T00:16:43;54329.75;;;-143.77;62.71
13836;BME280;6988;52.614;13.500;2023-04-23T00:21:36;54323.59;;;-143.77;63.17
13836;BME280;6988;52.614;13.500;2023-04-23T00:26:28;54294.88;;;-143.77;63.82
13836;BME280;6988;52.614;13.500;2023-04-23T00:31:20;54344.13;;;-143.77;63.58
13836;BME280;6988;52.614;13.500;2023-04-23T00:36:13;54311.28;;;-143.77;63.92
13836;BME280;6988;52.614;13.500;2023-04-23T00:41:08;54327.72;;;-143.77;64.25
13836;BME280;6988;52.614;13.500;2023-04-23T00:46:00;54329.75;;;-143.77;64.13
13836;BME280;6988;52.614;13.500;2023-04-23T00:50:57;54315.41;;;-143.77;63.54
13836;BME280;6988;52.614;13.500;2023-04-23T00:55:51;54331.81;;;-143.77;63.69
13836;BME280;6988;52.614;13.500;2023-04-23T01:00:45;54360.53;;;-143.77;64.07
13836;BME280;6988;52.614;13.500;2023-04-23T01:05:39;54325.66;;;-143.77;64.00
13836;BME280;6988;52.614;13.500;2023-04-23T01:10:32;54298.97;;;-143.77;64.17
13836;BME280;6988;52.614;13.500;2023-04-23T01:15:24;54288.72;;;-143.77;64.32
13836;BME280;6988;52.614;13.500;2023-04-23T01:20:18;54309.25;;;-143.77;64.68
13836;BME280;6988;52.614;13.500;2023-04-23T01:25:13;54298.97;;;-143.77;64.34
13836;BME280;6988;52.614;13.500;2023-04-23T01:30:07;54274.38;;;-143.77;64.44
13836;BME280;6988;52.614;13.500;2023-04-23T01:35:00;54284.63;;;-143.77;64.09
13836;BME280;6988;52.614;13.500;2023-04-23T01:39:53;54305.13;;;-143.77;64.08
13836;BME280;6988;52.614;13.500;2023-04-23T01:44:47;54286.69;;;-143.77;64.07
13836;BME280;6988;52.614;13.500;2023-04-23T02:14:30;54278.47;;;-143.77;62.98
13836;BME280;6988;52.614;13.500;2023-04-23T02:25:20;54266.16;;;-143.77;63.14
13836;BME280;6988;52.614;13.500;2023-04-23T02:30:14;54307.19;;;-143.77;64.56
13836;BME280;6988;52.614;13.500;2023-04-23T02:35:06;54247.69;;;-143.77;65.05
13836;BME280;6988;52.614;13.500;2023-04-23T02:39:58;54266.16;;;-143.77;67.52
13836;BME280;6988;52.614;13.500;2023-04-23T02:44:51;54270.25;;;-143.77;69.85
13836;BME280;6988;52.614;13.500;2023-04-23T02:49:44;54262.06;;;-143.77;70.19
13836;BME280;6988;52.614;13.500;2023-04-23T02:54:36;54268.22;;;-143.77;71.02
13836;BME280;6988;52.614;13.500;2023-04-23T02:59:28;54274.38;;;-143.77;71.91
13836;BME280;6988;52.614;13.500;2023-04-23T03:04:20;54282.56;;;-143.77;71.86
13836;BME280;6988;52.614;13.500;2023-04-23T03:09:14;54337.97;;;-143.77;72.55
13836;BME280;6988;52.614;13.500;2023-04-23T03:14:06;54264.09;;;-143.77;73.60
13836;BME280;6988;52.614;13.500;2023-04-23T03:18:58;54245.63;;;-143.77;73.66
13836;BME280;6988;52.614;13.500;2023-04-23T03:23:51;54286.69;;;-143.77;73.44
13836;BME280;6988;52.614;13.500;2023-04-23T03:28:44;54284.63;;;-143.77;74.23
13836;BME280;6988;52.614;13.500;2023-04-23T03:33:36;54298.97;;;-143.77;75.11
13836;BME280;6988;52.614;13.500;2023-04-23T03:38:27;54278.47;;;-143.77;75.12
13836;BME280;6988;52.614;13.500;2023-04-23T03:43:21;54313.34;;;-143.77;75.95
13836;BME280;6988;52.614;13.500;2023-04-23T03:48:29;54288.72;;;-143.77;76.96
13836;BME280;6988;52.614;13.500;2023-04-23T03:53:25;54307.19;;;-143.77;78.41
13836;BME280;6988;52.614;13.500;2023-04-23T03:58:48;54288.72;;;-143.77;79.01
13836;BME280;6988;52.614;13.500;2023-04-23T04:03:42;54286.69;;;-143.77;79.11
13836;BME280;6988;52.614;13.500;2023-04-23T04:08:34;54307.19;;;-143.77;78.94
13836;BME280;6988;52.614;13.500;2023-04-23T04:13:26;54270.25;;;-143.77;78.37
13836;BME280;6988;52.614;13.500;2023-04-23T04:18:18;54262.06;;;-143.77;77.76
13836;BME280;6988;52.614;13.500;2023-04-23T04:23:12;54292.84;;;-143.77;77.30
13836;BME280;6988;52.614;13.500;2023-04-23T04:28:07;54284.63;;;-143.77;76.83
13836;BME280;6988;52.614;13.500;2023-04-23T04:33:01;54278.47;;;-143.77;77.11
13836;BME280;6988;52.614;13.500;2023-04-23T04:37:53;54286.69;;;-143.77;77.31
13836;BME280;6988;52.614;13.500;2023-04-23T04:42:46;54280.53;;;-143.77;77.16
13836;BME280;6988;52.614;13.500;2023-04-23T04:47:38;54255.91;;;-143.77;77.60
13836;BME280;6988;52.614;13.500;2023-04-23T04:52:31;54292.84;;;-143.77;78.67
13836;BME280;6988;52.614;13.500;2023-04-23T04:57:23;54241.53;;;-143.77;79.18
13836;BME280;6988;52.614;13.500;2023-04-23T05:02:16;54251.78;;;-143.77;79.62
13836;BME280;6988;52.614;13.500;2023-04-23T05:07:09;54239.47;;;-143.77;79.71
13836;BME280;6988;52.614;13.500;2023-04-23T05:12:01;54260.00;;;-143.77;79.46
13836;BME280;6988;52.614;13.500;2023-04-23T05:16:56;54212.81;;;-143.77;79.33
13836;BME280;6988;52.614;13.500;2023-04-23T05:21:50;54235.38;;;-143.77;79.54
13836;BME280;6988;52.614;13.500;2023-04-23T05:26:42;54245.63;;;-143.77;79.97
13836;BME280;6988;52.614;13.500;2023-04-23T05:31:34;54227.16;;;-143.77;80.61
13836;BME280;6988;52.614;13.500;2023-04-23T05:36:25;54177.94;;;-143.77;80.91
13836;BME280;6988;52.614;13.500;2023-04-23T05:41:19;54192.28;;;-143.77;80.72
13836;BME280;6988;52.614;13.500;2023-04-23T05:46:11;54184.09;;;-143.77;80.09
13836;BME280;6988;52.614;13.500;2023-04-23T05:51:03;54194.34;;;-143.77;79.71
13836;BME280;6988;52.614;13.500;2023-04-23T05:55:55;54188.19;;;-143.77;79.22
13836;BME280;6988;52.614;13.500;2023-04-23T06:00:48;54163.56;;;-143.77;78.29
13836;BME280;6988;52.614;13.500;2023-04-23T06:05:42;54143.06;;;-143.77;77.01
13836;BME280;6988;52.614;13.500;2023-04-23T06:10:34;54147.16;;;-143.77;76.12
13836;BME280;6988;52.614;13.500;2023-04-23T06:15:26;54122.53;;;-143.77;74.73
13836;BME280;6988;52.614;13.500;2023-04-23T06:20:19;54118.44;;;-143.77;73.32
13836;BME280;6988;52.614;13.500;2023-04-23T06:25:11;54141.00;;;-143.77;73.41
13836;BME280;6988;52.614;13.500;2023-04-23T06:30:05;54143.06;;;-143.77;73.61
13836;BME280;6988;52.614;13.500;2023-04-23T06:34:57;54151.25;;;-143.77;73.52
13836;BME280;6988;52.614;13.500;2023-04-23T06:39:51;54128.69;;;-143.77;73.56
13836;BME280;6988;52.614;13.500;2023-04-23T06:44:42;54114.31;;;-143.77;74.14
13836;BME280;6988;52.614;13.500;2023-04-23T06:49:36;54118.44;;;-143.77;73.96
13836;BME280;6988;52.614;13.500;2023-04-23T06:54:28;54149.22;;;-143.77;74.16
13836;BME280;6988;52.614;13.500;2023-04-23T06:59:21;54143.06;;;-143.77;74.05
13836;BME280;6988;52.614;13.500;2023-04-23T07:04:17;54126.63;;;-143.77;74.33
13836;BME280;6988;52.614;13.500;2023-04-23T07:09:12;54143.06;;;-143.77;74.05
13836;BME280;6988;52.614;13.500;2023-04-23T07:14:04;54134.84;;;-143.77;74.93
13836;BME280;6988;52.614;13.500;2023-04-23T07:18:59;54151.25;;;-143.77;75.04
13836;BME280;6988;52.614;13.500;2023-04-23T07:23:52;54128.69;;;-143.77;76.03
13836;BME280;6988;52.614;13.500;2023-04-23T07:28:44;54118.44;;;-143.77;77.32
13836;BME280;6988;52.614;13.500;2023-04-23T07:33:37;54173.81;;;-143.77;78.73
13836;BME280;6988;52.614;13.500;2023-04-23T07:38:30;54169.72;;;-143.77;80.54
13836;BME280;6988;52.614;13.500;2023-04-23T07:43:22;54155.38;;;-143.77;81.48
13836;BME280;6988;52.614;13.500;2023-04-23T07:48:14;54204.59;;;-143.77;82.55
13836;BME280;6988;52.614;13.500;2023-04-23T07:53:06;54182.03;;;-143.77;82.86
13836;BME280;6988;52.614;13.500;2023-04-23T07:57:59;54194.34;;;-143.77;83.42
13836;BME280;6988;52.614;13.500;2023-04-23T08:02:52;54179.97;;;-143.77;83.98
13836;BME280;6988;52.614;13.500;2023-04-23T08:07:44;54245.63;;;-143.77;84.35
13836;BME280;6988;52.614;13.500;2023-04-23T08:12:36;54179.97;;;-143.77;84.50
13836;BME280;6988;52.614;13.500;2023-04-23T08:17:29;54192.28;;;-143.77;84.59
13836;BME280;6988;52.614;13.500;2023-04-23T08:22:21;54186.13;;;-143.77;85.08
13836;BME280;6988;52.614;13.500;2023-04-23T08:27:13;54184.09;;;-143.77;85.51
13836;BME280;6988;52.614;13.500;2023-04-23T08:32:05;54188.19;;;-143.77;85.44
13836;BME280;6988;52.614;13.500;2023-04-23T08:36:58;54202.56;;;-143.77;85.46
13836;BME280;6988;52.614;13.500;2023-04-23T08:41:54;54182.03;;;-143.77;85.31
13836;BME280;6988;52.614;13.500;2023-04-23T08:46:47;54165.63;;;-143.77;84.84
13836;BME280;6988;52.614;13.500;2023-04-23T08:51:44;54165.63;;;-143.77;84.51
13836;BME280;6988;52.614;13.500;2023-04-23T08:56:40;54175.88;;;-143.77;84.57
13836;BME280;6988;52.614;13.500;2023-04-23T09:01:33;54141.00;;;-143.77;83.85
13836;BME280;6988;52.614;13.500;2023-04-23T09:06:26;54122.53;;;-143.77;82.42
13836;BME280;6988;52.614;13.500;2023-04-23T09:11:19;54128.69;;;-143.77;82.27
13836;BME280;6988;52.614;13.500;2023-04-23T09:16:12;54157.41;;;-143.77;82.73
13836;BME280;6988;52.614;13.500;2023-04-23T09:21:06;54177.94;;;-143.77;82.12
13836;BME280;6988;52.614;13.500;2023-04-23T09:25:57;54184.09;;;-143.77;81.93
13836;BME280;6988;52.614;13.500;2023-04-23T09:30:49;54177.94;;;-143.77;82.44
13836;BME280;6988;52.614;13.500;2023-04-23T09:35:43;54216.91;;;-143.77;82.62
13836;BME280;6988;52.614;13.500;2023-04-23T09:40:37;54208.72;;;-143.77;82.99
13836;BME280;6988;52.614;13.500;2023-04-23T09:45:29;54186.13;;;-143.77;83.34
13836;BME280;6988;52.614;13.500;2023-04-23T09:50:33;54225.13;;;-143.77;83.59
13836;BME280;6988;52.614;13.500;2023-04-23T09:55:31;54182.03;;;-143.77;84.12
13836;BME280;6988;52.614;13.500;2023-04-23T10:00:25;54214.88;;;-143.77;82.86
13836;BME280;6988;52.614;13.500;2023-04-23T10:05:21;54200.50;;;-143.77;82.58
13836;BME280;6988;52.614;13.500;2023-04-23T10:10:14;54202.56;;;-143.77;82.31
13836;BME280;6988;52.614;13.500;2023-04-23T10:15:09;54245.63;;;-143.77;82.63
13836;BME280;6988;52.614;13.500;2023-04-23T10:20:02;54239.47;;;-143.77;81.42
13836;BME280;6988;52.614;13.500;2023-04-23T10:24:56;54257.94;;;-143.77;81.96
13836;BME280;6988;52.614;13.500;2023-04-23T10:29:50;54216.91;;;-143.77;81.70
13836;BME280;6988;52.614;13.500;2023-04-23T10:34:47;54175.88;;;-143.77;82.03
13836;BME280;6988;52.614;13.500;2023-04-23T10:39:43;54239.47;;;-143.77;81.77
13836;BME280;6988;52.614;13.500;2023-04-23T10:44:36;54179.97;;;-143.77;81.87
13836;BME280;6988;52.614;13.500;2023-04-23T10:49:31;54147.16;;;-143.77;80.97
13836;BME280;6988;52.614;13.500;2023-04-23T10:54:29;54161.50;;;-143.77;81.37
13836;BME280;6988;52.614;13.500;2023-04-23T10:59:22;54128.69;;;-143.77;78.33
13836;BME280;6988;52.614;13.500;2023-04-23T11:04:22;54149.22;;;-143.77;77.13
13836;BME280;6988;52.614;13.500;2023-04-23T11:09:39;54114.31;;;-143.77;74.35
13836;BME280;6988;52.614;13.500;2023-04-23T11:14:40;54038.41;;;-143.77;73.78
13836;BME280;6988;52.614;13.500;2023-04-23T11:19:34;54032.25;;;-143.77;72.64
13836;BME280;6988;52.614;13.500;2023-04-23T11:24:31;54046.63;;;-143.77;70.89
13836;BME280;6988;52.614;13.500;2023-04-23T11:29:25;54017.91;;;-143.77;69.23
13836;BME280;6988;52.614;13.500;2023-04-23T11:34:18;54093.81;;;-143.77;70.87
13836;BME280;6988;52.614;13.500;2023-04-23T11:39:10;54089.72;;;-143.77;69.96
13836;BME280;6988;52.614;13.500;2023-04-23T11:44:04;54095.88;;;-143.77;71.09
13836;BME280;6988;52.614;13.500;2023-04-23T11:48:59;54097.91;;;-143.77;71.69
13836;BME280;6988;52.614;13.500;2023-04-23T11:53:51;54095.88;;;-143.77;71.51
13836;BME280;6988;52.614;13.500;2023-04-23T11:58:43;54089.72;;;-143.77;72.13
13836;BME280;6988;52.614;13.500;2023-04-23T12:03:36;54048.66;;;-143.77;71.91
13836;BME280;6988;52.614;13.500;2023-04-23T12:08:32;54019.94;;;-143.77;71.55
13836;BME280;6988;52.614;13.500;2023-04-23T12:13:29;54046.63;;;-143.77;68.94
13836;BME280;6988;52.614;13.500;2023-04-23T12:18:27;53941.97;;;-143.77;68.67
13836;BME280;6988;52.614;13.500;2023-04-23T12:23:25;54036.38;;;-143.77;68.47
13836;BME280;6988;52.614;13.500;2023-04-23T12:28:22;54003.53;;;-143.77;69.09
13836;BME280;6988;52.614;13.500;2023-04-23T12:33:14;53999.44;;;-143.77;67.87
13836;BME280;6988;52.614;13.500;2023-04-23T12:38:21;53997.38;;;-143.77;67.17
13836;BME280;6988;52.614;13.500;2023-04-23T12:43:14;54022.00;;;-143.77;65.63
13836;BME280;6988;52.614;13.500;2023-04-23T12:48:06;54001.47;;;-143.77;65.79
13836;BME280;6988;52.614;13.500;2023-04-23T12:52:58;54028.16;;;-143.77;65.67
13836;BME280;6988;52.614;13.500;2023-04-23T12:57:51;53991.22;;;-143.77;68.22
13836;BME280;6988;52.614;13.500;2023-04-23T13:02:43;54007.63;;;-143.77;68.16
13836;BME280;6988;52.614;13.500;2023-04-23T13:07:35;54028.16;;;-143.77;68.16
13836;BME280;6988;52.614;13.500;2023-04-23T13:12:27;53987.13;;;-143.77;68.42
13836;BME280;6988;52.614;13.500;2023-04-23T13:17:20;53966.59;;;-143.77;68.84
13836;BME280;6988;52.614;13.500;2023-04-23T13:22:12;53985.06;;;-143.77;66.03
13836;BME280;6988;52.614;13.500;2023-04-23T13:27:04;53991.22;;;-143.77;65.58
13836;BME280;6988;52.614;13.500;2023-04-23T13:31:56;53983.00;;;-143.77;66.41
13836;BME280;6988;52.614;13.500;2023-04-23T13:36:50;53950.19;;;-143.77;65.61
13836;BME280;6988;52.614;13.500;2023-04-23T13:41:42;53966.59;;;-143.77;65.46
13836;BME280;6988;52.614;13.500;2023-04-23T13:46:34;53843.50;;;-143.77;64.05
13836;BME280;6988;52.614;13.500;2023-04-23T13:51:26;53929.69;;;-143.77;62.58
13836;BME280;6988;52.614;13.500;2023-04-23T13:56:19;53864.03;;;-143.77;61.72
13836;BME280;6988;52.614;13.500;2023-04-23T14:01:11;53970.72;;;-143.77;63.17
13836;BME280;6988;52.614;13.500;2023-04-23T14:06:05;53966.59;;;-143.77;62.07
13836;BME280;6988;52.614;13.500;2023-04-23T14:10:57;53948.13;;;-143.77;56.00
13836;BME280;6988;52.614;13.500;2023-04-23T14:15:50;53989.16;;;-143.77;49.92
13836;BME280;6988;52.614;13.500;2023-04-23T14:20:42;53829.16;;;-143.77;49.48
13836;BME280;6988;52.614;13.500;2023-04-23T14:25:40;53884.53;;;-143.77;53.95
13836;BME280;6988;52.614;13.500;2023-04-23T14:30:33;53859.91;;;-143.77;52.51
13836;BME280;6988;52.614;13.500;2023-04-23T14:35:27;53853.75;;;-143.77;46.77
13836;BME280;6988;52.614;13.500;2023-04-23T14:40:20;53818.88;;;-143.77;47.34
13836;BME280;6988;52.614;13.500;2023-04-23T14:45:11;53769.66;;;-143.77;45.63
13836;BME280;6988;52.614;13.500;2023-04-23T14:50:06;53888.63;;;-143.77;44.71
13836;BME280;6988;52.614;13.500;2023-04-23T14:54:59;53794.28;;;-143.77;44.88
13836;BME280;6988;52.614;13.500;2023-04-23T14:59:51;53777.84;;;-143.77;42.77
13836;BME280;6988;52.614;13.500;2023-04-23T15:04:44;53761.44;;;-143.77;43.00
13836;BME280;6988;52.614;13.500;2023-04-23T15:09:36;53747.09;;;-143.77;42.86
13836;BME280;6988;52.614;13.500;2023-04-23T15:14:36;53882.50;;;-143.77;43.48
13836;BME280;6988;52.614;13.500;2023-04-23T15:19:29;53868.13;;;-143.77;44.60
13836;BME280;6988;52.614;13.500;2023-04-23T15:24:22;53833.25;;;-143.77;43.91
13836;BME280;6988;52.614;13.500;2023-04-23T15:29:14;53829.16;;;-143.77;44.19
13836;BME280;6988;52.614;13.500;2023-04-23T15:34:08;53876.34;;;-143.77;42.23
13836;BME280;6988;52.614;13.500;2023-04-23T15:39:01;53849.66;;;-143.77;42.50
13836;BME280;6988;52.614;13.500;2023-04-23T15:43:53;53841.44;;;-143.77;42.94
13836;BME280;6988;52.614;13.500;2023-04-23T15:48:45;53872.22;;;-143.77;41.65
13836;BME280;6988;52.614;13.500;2023-04-23T15:53:38;53892.75;;;-143.77;42.96
13836;BME280;6988;52.614;13.500;2023-04-23T15:58:30;53880.44;;;-143.77;42.23
13836;BME280;6988;52.614;13.500;2023-04-23T16:03:22;53905.06;;;-143.77;41.61
13836;BME280;6988;52.614;13.500;2023-04-23T16:08:14;53919.41;;;-143.77;42.89
13836;BME280;6988;52.614;13.500;2023-04-23T16:13:08;53929.69;;;-143.77;42.25
13836;BME280;6988;52.614;13.500;2023-04-23T16:18:00;53939.94;;;-143.77;44.51
13836;BME280;6988;52.614;13.500;2023-04-23T16:22:52;53925.56;;;-143.77;45.02
13836;BME280;6988;52.614;13.500;2023-04-23T16:27:44;53956.34;;;-143.77;45.57
13836;BME280;6988;52.614;13.500;2023-04-23T16:32:37;53954.28;;;-143.77;45.28
13836;BME280;6988;52.614;13.500;2023-04-23T16:37:29;53987.13;;;-143.77;46.17
13836;BME280;6988;52.614;13.500;2023-04-23T16:42:21;53968.66;;;-143.77;47.71
13836;BME280;6988;52.614;13.500;2023-04-23T16:47:15;53991.22;;;-143.77;49.30
13836;BME280;6988;52.614;13.500;2023-04-23T16:52:08;54017.91;;;-143.77;51.97
13836;BME280;6988;52.614;13.500;2023-04-23T16:57:00;54011.75;;;-143.77;47.93
13836;BME280;6988;52.614;13.500;2023-04-23T17:01:53;54011.75;;;-143.77;51.99
13836;BME280;6988;52.614;13.500;2023-04-23T17:06:45;54026.09;;;-143.77;52.55
13836;BME280;6988;52.614;13.500;2023-04-23T17:11:38;54073.28;;;-143.77;53.72
13836;BME280;6988;52.614;13.500;2023-04-23T17:16:30;54069.19;;;-143.77;53.50
13836;BME280;6988;52.614;13.500;2023-04-23T17:21:23;54110.22;;;-143.77;56.91
13836;BME280;6988;52.614;13.500;2023-04-23T17:26:15;54067.13;;;-143.77;57.73
13836;BME280;6988;52.614;13.500;2023-04-23T17:31:08;54136.91;;;-143.77;57.55
13836;BME280;6988;52.614;13.500;2023-04-23T17:36:00;54093.81;;;-143.77;54.65
13836;BME280;6988;52.614;13.500;2023-04-23T17:40:53;54102.00;;;-143.77;53.47
13836;BME280;6988;52.614;13.500;2023-04-23T17:45:45;54143.06;;;-143.77;53.66
13836;BME280;6988;52.614;13.500;2023-04-23T17:50:39;54130.75;;;-143.77;56.35
13836;BME280;6988;52.614;13.500;2023-04-23T17:55:31;54159.47;;;-143.77;56.89
13836;BME280;6988;52.614;13.500;2023-04-23T18:00:23;54141.00;;;-143.77;57.63
13836;BME280;6988;52.614;13.500;2023-04-23T18:05:18;54151.25;;;-143.77;58.91
13836;BME280;6988;52.614;13.500;2023-04-23T18:10:11;54200.50;;;-143.77;60.08
13836;BME280;6988;52.614;13.500;2023-04-23T18:15:04;54202.56;;;-143.77;60.99
13836;BME280;6988;52.614;13.500;2023-04-23T18:19:56;54188.19;;;-143.77;62.14
13836;BME280;6988;52.614;13.500;2023-04-23T18:24:49;54204.59;;;-143.77;62.39
13836;BME280;6988;52.614;13.500;2023-04-23T18:29:42;54200.50;;;-143.77;62.64
13836;BME280;6988;52.614;13.500;2023-04-23T18:34:38;54208.72;;;-143.77;62.75
13836;BME280;6988;52.614;13.500;2023-04-23T18:39:30;54198.44;;;-143.77;63.23
13836;BME280;6988;52.614;13.500;2023-04-23T18:44:22;54233.31;;;-143.77;63.47
13836;BME280;6988;52.614;13.500;2023-04-23T18:49:37;54235.38;;;-143.77;63.78
13836;BME280;6988;52.614;13.500;2023-04-23T18:54:30;54274.38;;;-143.77;64.07
13836;BME280;6988;52.614;13.500;2023-04-23T18:59:22;54266.16;;;-143.77;64.46
13836;BME280;6988;52.614;13.500;2023-04-23T19:04:14;54247.69;;;-143.77;65.54
13836;BME280;6988;52.614;13.500;2023-04-23T19:09:07;54276.41;;;-143.77;65.77
13836;BME280;6988;52.614;13.500;2023-04-23T19:13:59;54282.56;;;-143.77;66.16
13836;BME280;6988;52.614;13.500;2023-04-23T19:18:51;54284.63;;;-143.77;66.24
13836;BME280;6988;52.614;13.500;2023-04-23T19:23:43;54331.81;;;-143.77;66.55
13836;BME280;6988;52.614;13.500;2023-04-23T19:28:37;54303.09;;;-143.77;66.50
13836;BME280;6988;52.614;13.500;2023-04-23T19:33:29;54296.94;;;-143.77;66.67
13836;BME280;6988;52.614;13.500;2023-04-23T19:38:21;54253.84;;;-143.77;67.07
13836;BME280;6988;52.614;13.500;2023-04-23T19:43:13;54309.25;;;-143.77;67.36
13836;BME280;6988;52.614;13.500;2023-04-23T19:48:11;54296.94;;;-143.77;67.57
13836;BME280;6988;52.614;13.500;2023-04-23T19:53:03;54298.97;;;-143.77;67.66
13836;BME280;6988;52.614;13.500;2023-04-23T19:58:10;54409.78;;;-143.77;67.85
13836;BME280;6988;52.614;13.500;2023-04-23T20:03:16;54335.91;;;-143.77;67.79
13836;BME280;6988;52.614;13.500;2023-04-23T20:08:14;54342.06;;;-143.77;68.49
13836;BME280;6988;52.614;13.500;2023-04-23T20:13:15;54358.50;;;-143.77;69.08
13836;BME280;6988;52.614;13.500;2023-04-23T20:18:08;54311.28;;;-143.77;69.14
13836;BME280;6988;52.614;13.500;2023-04-23T20:23:01;54418.00;;;-143.77;69.18
13836;BME280;6988;52.614;13.500;2023-04-23T20:27:55;54389.28;;;-143.77;69.85
13836;BME280;6988;52.614;13.500;2023-04-23T20:32:47;54483.66;;;-143.77;70.57
13836;BME280;6988;52.614;13.500;2023-04-23T20:37:39;54479.56;;;-143.77;72.42
13836;BME280;6988;52.614;13.500;2023-04-23T20:42:33;54422.09;;;-143.77;72.88
13836;BME280;6988;52.614;13.500;2023-04-23T20:47:28;54436.47;;;-143.77;73.30
13836;BME280;6988;52.614;13.500;2023-04-23T20:52:21;54413.88;;;-143.77;74.52
13836;BME280;6988;52.614;13.500;2023-04-23T20:57:13;54426.19;;;-143.77;74.94
13836;BME280;6988;52.614;13.500;2023-04-23T21:02:08;54413.88;;;-143.77;75.73
13836;BME280;6988;52.614;13.500;2023-04-23T21:07:02;54438.50;;;-143.77;75.92
13836;BME280;6988;52.614;13.500;2023-04-23T21:11:55;54442.63;;;-143.77;77.07
13836;BME280;6988;52.614;13.500;2023-04-23T21:16:47;54473.41;;;-143.77;77.38
13836;BME280;6988;52.614;13.500;2023-04-23T21:21:41;54430.31;;;-143.77;77.52
13836;BME280;6988;52.614;13.500;2023-04-23T21:26:32;54461.09;;;-143.77;78.63
13836;BME280;6988;52.614;13.500;2023-04-23T21:31:35;54459.03;;;-143.77;80.17
13836;BME280;6988;52.614;13.500;2023-04-23T21:36:29;54489.81;;;-143.77;80.13
13836;BME280;6988;52.614;13.500;2023-04-23T21:41:22;54498.03;;;-143.77;79.56
13836;BME280;6988;52.614;13.500;2023-04-23T22:04:52;54483.66;;;-143.77;83.39
13836;BME280;6988;52.614;13.500;2023-04-23T22:09:44;54475.44;;;-143.77;83.19
13836;BME280;6988;52.614;13.500;2023-04-23T22:14:36;54491.88;;;-143.77;83.44
13836;BME280;6988;52.614;13.500;2023-04-23T22:19:28;54500.06;;;-143.77;83.65
13836;BME280;6988;52.614;13.500;2023-04-23T22:24:22;54463.13;;;-143.77;83.46
13836;BME280;6988;52.614;13.500;2023-04-23T22:29:14;54489.81;;;-143.77;83.22
13836;BME280;6988;52.614;13.500;2023-04-23T22:34:07;54502.13;;;-143.77;83.53
13836;BME280;6988;52.614;13.500;2023-04-23T22:38:59;54489.81;;;-143.77;83.46
13836;BME280;6988;52.614;13.500;2023-04-23T22:43:52;54448.78;;;-143.77;83.46
13836;BME280;6988;52.614;13.500;2023-04-23T22:48:44;54471.34;;;-143.77;83.09
13836;BME280;6988;52.614;13.500;2023-04-23T22:53:38;54471.34;;;-143.77;83.28
13836;BME280;6988;52.614;13.500;2023-04-23T22:58:30;54459.03;;;-143.77;83.49
13836;BME280;6988;52.614;13.500;2023-04-23T23:03:23;54495.97;;;-143.77;84.34
13836;BME280;6988;52.614;13.500;2023-04-23T23:08:15;54483.66;;;-143.77;84.70
13836;BME280;6988;52.614;13.500;2023-04-23T23:13:06;54483.66;;;-143.77;84.85
13836;BME280;6988;52.614;13.500;2023-04-23T23:17:58;54454.94;;;-143.77;84.66
13836;BME280;6988;52.614;13.500;2023-04-23T23:22:51;54502.13;;;-143.77;84.61
13836;BME280;6988;52.614;13.500;2023-04-23T23:27:43;54522.63;;;-143.77;85.09
13836;BME280;6988;52.614;13.500;2023-04-23T23:32:35;54477.50;;;-143.77;85.31
13836;BME280;6988;52.614;13.500;2023-04-23T23:37:28;54495.97;;;-143.77;85.77
13836;BME280;6988;52.614;13.500;2023-04-23T23:42:21;54504.19;;;-143.77;85.81
13836;BME280;6988;52.614;13.500;2023-04-23T23:47:13;54495.97;;;-143.77;84.89
13836;BME280;6988;52.614;13.500;2023-04-23T23:52:04;54456.97;;;-143.77;84.49
13836;BME280;6988;52.614;13.500;2023-04-23T23:56:56;54491.88;;;-143.77;84.56
